Time;durP1;ratioP1;P1;durP2;ratioP2;P2;SDS_P1;SDS_P2;PMS_P1;PMS_P2;Temp;Humidity;BMP_temperature;BMP_pressure;BME280_temperature;BME280_humidity;BME280_pressure;Samples;Min_cycle;Max_cycle;Signal;HPM_P1;HPM_P2
2023/03/06 00:00:33;;;;;;;12.63;6.70;;;2.00;99.90;;;;;;5011822;28;20205;-93
2023/03/06 00:03:00;;;;;;;12.10;7.05;;;1.90;99.90;;;;;;5017610;28;20255;-92
2023/03/06 00:05:27;;;;;;;11.65;7.03;;;1.90;99.90;;;;;;5018276;28;20187;-92
2023/03/06 00:07:54;;;;;;;11.82;6.82;;;1.90;99.90;;;;;;5017249;28;20199;-92
2023/03/06 00:10:23;;;;;;;9.65;5.68;;;1.90;99.90;;;;;;5008581;28;20211;-91
2023/03/06 00:12:55;;;;;;;10.27;6.18;;;1.90;99.90;;;;;;5004649;28;20234;-91
2023/03/06 00:15:24;;;;;;;16.25;7.55;;;1.80;99.90;;;;;;5002807;28;20270;-92
2023/03/06 00:17:51;;;;;;;11.40;6.40;;;1.90;99.90;;;;;;5004569;28;20213;-92
2023/03/06 00:20:18;;;;;;;11.65;7.13;;;1.80;99.90;;;;;;5009185;28;20290;-91
2023/03/06 00:22:46;;;;;;;10.05;6.05;;;1.80;99.90;;;;;;5060524;23;20254;-67
2023/03/06 00:25:16;;;;;;;8.63;5.28;;;1.80;99.90;;;;;;4952287;28;20256;-67
2023/03/06 00:27:43;;;;;;;10.98;5.90;;;1.80;99.90;;;;;;4950909;29;20201;-67
2023/03/06 00:30:14;;;;;;;10.55;5.90;;;1.80;99.90;;;;;;4952984;28;20233;-67
2023/03/06 00:32:41;;;;;;;12.10;6.68;;;1.80;99.90;;;;;;4952893;28;20212;-67
2023/03/06 00:35:09;;;;;;;13.68;6.55;;;1.80;99.90;;;;;;4952205;28;20208;-66
2023/03/06 00:37:35;;;;;;;13.27;7.35;;;1.80;99.90;;;;;;4944953;28;20215;-67
2023/03/06 00:40:05;;;;;;;10.63;5.25;;;1.80;99.90;;;;;;4952770;28;20204;-67
2023/03/06 00:42:32;;;;;;;12.35;7.07;;;1.80;99.90;;;;;;4952245;28;20227;-67
2023/03/06 00:44:58;;;;;;;9.05;5.45;;;1.80;99.90;;;;;;4952515;28;20212;-67
2023/03/06 00:47:27;;;;;;;10.25;6.18;;;1.80;99.90;;;;;;4952659;28;20211;-67
2023/03/06 00:49:53;;;;;;;14.23;6.55;;;1.80;99.90;;;;;;4952711;28;20219;-67
2023/03/06 00:52:20;;;;;;;16.67;5.97;;;1.80;99.90;;;;;;4952325;28;20629;-67
2023/03/06 00:54:47;;;;;;;10.70;7.10;;;1.80;99.90;;;;;;4952213;28;20211;-67
2023/03/06 00:57:13;;;;;;;10.95;7.10;;;1.80;99.90;;;;;;4944730;28;20201;-67
2023/03/06 00:59:40;;;;;;;8.55;6.25;;;1.80;99.90;;;;;;4942601;29;20205;-67
2023/03/06 01:02:07;;;;;;;12.57;7.15;;;1.80;99.90;;;;;;4947255;29;20366;-67
2023/03/06 01:04:35;;;;;;;9.65;6.18;;;1.80;99.90;;;;;;4951528;28;20223;-67
2023/03/06 01:07:02;;;;;;;8.77;6.22;;;1.80;99.90;;;;;;4953076;28;20210;-67
2023/03/06 01:09:29;;;;;;;16.40;6.22;;;1.80;99.90;;;;;;4942855;28;20216;-67
2023/03/06 01:11:56;;;;;;;11.57;7.28;;;1.80;99.90;;;;;;4946665;29;20216;-67
2023/03/06 01:14:23;;;;;;;13.43;6.63;;;1.90;99.90;;;;;;4943679;28;20232;-67
2023/03/06 01:16:49;;;;;;;11.43;6.72;;;1.90;99.90;;;;;;4952915;28;20227;-67
2023/03/06 01:19:16;;;;;;;10.40;6.45;;;1.90;99.90;;;;;;4952267;29;20205;-67
2023/03/06 01:21:45;;;;;;;7.82;6.30;;;1.90;99.90;;;;;;4937498;29;20204;-67
2023/03/06 01:24:11;;;;;;;10.70;6.15;;;1.90;99.90;;;;;;4951540;28;20251;-67
2023/03/06 01:26:38;;;;;;;13.75;6.72;;;1.90;99.90;;;;;;4952372;28;20208;-67
2023/03/06 01:29:05;;;;;;;13.38;7.35;;;1.90;99.90;;;;;;4937991;28;20208;-67
2023/03/06 01:31:32;;;;;;;8.80;6.05;;;1.90;99.90;;;;;;4941452;29;20211;-67
2023/03/06 01:33:58;;;;;;;13.30;7.40;;;1.90;99.90;;;;;;4938365;29;20220;-67
2023/03/06 01:36:25;;;;;;;7.65;5.80;;;1.80;99.90;;;;;;4952699;28;20204;-67
2023/03/06 01:38:53;;;;;;;10.27;6.90;;;1.80;99.90;;;;;;4948007;29;20204;-67
2023/03/06 01:41:20;;;;;;;12.60;8.75;;;1.80;99.90;;;;;;4948683;29;20223;-67
2023/03/06 01:43:47;;;;;;;12.13;6.95;;;1.80;99.90;;;;;;4944900;29;20220;-67
2023/03/06 01:46:32;;;;;;;13.90;6.43;;;1.90;99.90;;;;;;4937299;28;20224;-67
2023/03/06 01:49:02;;;;;;;10.55;7.35;;;1.80;99.90;;;;;;4946612;29;20247;-67
2023/03/06 01:51:33;;;;;;;9.38;6.68;;;1.80;99.90;;;;;;4936749;28;20201;-67
2023/03/06 01:54:04;;;;;;;12.10;5.25;;;1.90;99.90;;;;;;4937992;29;20217;-67
2023/03/06 01:56:31;;;;;;;11.07;6.85;;;1.90;99.90;;;;;;4951093;29;20204;-67
2023/03/06 01:58:59;;;;;;;8.82;6.07;;;1.90;99.90;;;;;;4952456;28;20211;-67
2023/03/06 02:01:26;;;;;;;11.35;6.20;;;1.90;99.90;;;;;;4952070;28;20631;-67
2023/03/06 02:03:55;;;;;;;10.15;6.10;;;1.90;99.90;;;;;;4951277;28;20227;-67
2023/03/06 02:06:21;;;;;;;12.27;7.07;;;1.90;99.90;;;;;;4952253;28;20215;-67
2023/03/06 02:08:49;;;;;;;11.52;6.78;;;1.90;99.90;;;;;;4951319;28;20667;-67
2023/03/06 02:11:19;;;;;;;14.73;6.05;;;1.90;99.90;;;;;;4952112;28;20213;-67
2023/03/06 02:13:47;;;;;;;10.85;5.57;;;1.90;99.90;;;;;;4952181;28;20217;-67
2023/03/06 02:16:16;;;;;;;10.10;6.13;;;1.90;99.90;;;;;;4951361;28;20216;-66
2023/03/06 02:18:45;;;;;;;14.88;6.43;;;2.00;99.90;;;;;;4943901;28;20212;-67
2023/03/06 02:21:19;;;;;;;9.45;6.20;;;2.00;99.90;;;;;;4952030;28;20212;-67
2023/03/06 02:23:54;;;;;;;8.48;6.88;;;2.00;99.90;;;;;;4951158;28;20224;-66
2023/03/06 02:26:23;;;;;;;10.80;6.35;;;2.00;99.90;;;;;;4951835;28;20200;-66
2023/03/06 02:28:50;;;;;;;9.88;6.28;;;2.00;99.90;;;;;;4951625;28;20220;-67
2023/03/06 02:31:21;;;;;;;10.43;6.15;;;2.00;99.90;;;;;;4946587;28;20209;-66
2023/03/06 02:34:06;;;;;;;7.28;5.70;;;2.00;99.90;;;;;;4943861;29;20224;-66
2023/03/06 02:36:36;;;;;;;10.50;6.18;;;1.90;99.90;;;;;;4951253;28;20207;-67
2023/03/06 02:39:03;;;;;;;8.20;5.60;;;1.90;99.90;;;;;;4951755;29;20200;-67
2023/03/06 02:41:31;;;;;;;13.85;6.22;;;1.90;99.90;;;;;;4951781;28;20211;-66
2023/03/06 02:43:58;;;;;;;10.68;5.30;;;1.80;99.90;;;;;;4946226;28;20663;-66
2023/03/06 02:46:24;;;;;;;11.65;6.53;;;1.80;99.90;;;;;;4933395;29;20212;-67
2023/03/06 02:48:51;;;;;;;9.68;6.05;;;1.80;99.90;;;;;;4947950;28;20205;-66
2023/03/06 02:51:18;;;;;;;12.60;6.05;;;1.80;99.90;;;;;;4940408;29;20574;-67
2023/03/06 02:53:45;;;;;;;11.32;5.50;;;1.80;99.90;;;;;;4935213;29;20217;-67
2023/03/06 02:56:11;;;;;;;8.25;6.07;;;1.80;99.90;;;;;;4951855;29;20205;-67
2023/03/06 02:58:39;;;;;;;9.65;5.75;;;1.80;99.90;;;;;;4951937;28;20376;-66
2023/03/06 03:01:06;;;;;;;8.70;5.82;;;1.80;99.90;;;;;;4951926;28;20890;-67
2023/03/06 03:03:33;;;;;;;8.77;5.95;;;1.80;99.90;;;;;;4951436;28;20231;-67
2023/03/06 03:06:00;;;;;;;10.27;6.43;;;1.80;99.90;;;;;;4951551;28;20216;-67
2023/03/06 03:08:28;;;;;;;9.70;5.90;;;1.80;99.90;;;;;;4951793;28;20208;-67
2023/03/06 03:10:55;;;;;;;11.52;5.90;;;1.80;99.90;;;;;;4951815;28;20197;-66
2023/03/06 03:13:22;;;;;;;9.98;5.32;;;1.80;99.90;;;;;;4951342;28;20220;-67
2023/03/06 03:15:59;;;;;;;8.32;5.85;;;1.80;99.90;;;;;;4951624;28;20625;-66
2023/03/06 03:18:26;;;;;;;5.85;4.88;;;1.80;99.90;;;;;;4951683;28;20622;-66
2023/03/06 03:20:52;;;;;;;7.75;5.00;;;1.80;99.90;;;;;;4954311;28;20208;-67
2023/03/06 03:23:19;;;;;;;9.25;5.45;;;1.80;99.90;;;;;;4954673;28;20231;-66
2023/03/06 03:25:46;;;;;;;10.18;6.10;;;1.90;99.90;;;;;;4954735;28;20200;-67
2023/03/06 03:28:13;;;;;;;8.93;5.07;;;1.90;99.90;;;;;;4954725;28;20209;-67
2023/03/06 03:30:40;;;;;;;9.20;6.10;;;1.90;99.90;;;;;;4955017;28;20208;-67
2023/03/06 03:33:08;;;;;;;14.40;6.10;;;1.90;99.90;;;;;;4954559;28;20221;-66
2023/03/06 03:35:35;;;;;;;9.02;5.13;;;2.00;99.90;;;;;;4954668;28;20583;-66
2023/03/06 03:38:02;;;;;;;7.47;5.40;;;2.00;99.90;;;;;;4954860;28;20617;-66
2023/03/06 03:40:29;;;;;;;8.13;5.43;;;2.00;99.90;;;;;;4954913;28;20663;-66
2023/03/06 03:42:55;;;;;;;8.63;4.90;;;2.00;99.90;;;;;;4954465;28;20231;-66
2023/03/06 03:45:23;;;;;;;12.00;6.63;;;2.00;99.90;;;;;;4954398;28;20228;-67
2023/03/06 03:47:49;;;;;;;8.88;5.85;;;2.00;99.90;;;;;;4954770;28;20203;-67
2023/03/06 03:50:17;;;;;;;9.60;5.65;;;2.10;99.90;;;;;;4954575;28;20204;-67
2023/03/06 03:52:44;;;;;;;6.65;4.70;;;2.10;99.90;;;;;;4954363;28;20236;-67
2023/03/06 03:55:11;;;;;;;10.20;5.45;;;2.10;99.90;;;;;;4954094;28;20203;-68
2023/03/06 03:57:38;;;;;;;7.05;4.88;;;2.10;99.90;;;;;;4954296;28;20215;-66
2023/03/06 04:00:06;;;;;;;10.07;5.25;;;2.10;99.90;;;;;;4954401;28;20208;-67
2023/03/06 04:02:33;;;;;;;7.70;4.78;;;2.10;99.90;;;;;;4954198;28;20196;-66
2023/03/06 04:05:00;;;;;;;9.18;5.50;;;2.10;99.90;;;;;;4954260;28;20223;-67
2023/03/06 04:07:28;;;;;;;9.77;5.60;;;2.10;99.90;;;;;;4954926;28;20207;-67
2023/03/06 04:09:55;;;;;;;6.57;4.90;;;2.10;99.90;;;;;;4954843;28;20201;-67
2023/03/06 04:12:21;;;;;;;7.35;5.32;;;2.00;99.90;;;;;;4954681;28;20226;-66
2023/03/06 04:14:48;;;;;;;7.70;4.45;;;2.00;99.90;;;;;;4953815;28;20273;-67
2023/03/06 04:17:15;;;;;;;8.40;5.10;;;2.00;99.90;;;;;;4954201;28;20201;-66
2023/03/06 04:19:41;;;;;;;11.63;6.13;;;2.00;99.90;;;;;;4954066;28;20234;-66
2023/03/06 04:22:08;;;;;;;6.03;4.93;;;2.00;99.90;;;;;;4953908;28;20618;-66
2023/03/06 04:24:36;;;;;;;5.47;4.53;;;2.00;99.90;;;;;;4953456;28;20224;-67
2023/03/06 04:27:03;;;;;;;6.00;4.97;;;2.00;99.90;;;;;;4954008;28;20207;-66
2023/03/06 04:29:30;;;;;;;7.95;5.05;;;2.00;99.90;;;;;;4953959;28;20211;-66
2023/03/06 04:31:56;;;;;;;8.68;5.32;;;2.00;99.90;;;;;;4948914;28;20205;-66
2023/03/06 04:34:23;;;;;;;6.05;4.20;;;2.00;99.90;;;;;;4949715;29;20216;-66
2023/03/06 04:36:50;;;;;;;7.82;4.80;;;2.00;99.90;;;;;;4934866;29;20225;-67
2023/03/06 04:39:17;;;;;;;6.95;5.00;;;2.00;99.90;;;;;;4945591;29;20205;-67
2023/03/06 04:41:45;;;;;;;6.32;4.55;;;2.00;99.90;;;;;;4939254;28;20233;-67
2023/03/06 04:44:11;;;;;;;6.32;4.85;;;2.00;99.90;;;;;;4933955;29;20700;-67
2023/03/06 04:46:38;;;;;;;5.55;4.50;;;2.00;99.90;;;;;;4935572;29;20216;-66
2023/03/06 04:49:05;;;;;;;5.90;4.18;;;2.00;99.90;;;;;;4944498;29;20200;-67
2023/03/06 04:51:32;;;;;;;6.80;4.72;;;2.00;99.90;;;;;;4935163;29;20212;-67
2023/03/06 04:53:59;;;;;;;8.93;4.18;;;1.90;99.90;;;;;;4939014;29;20220;-67
2023/03/06 04:56:26;;;;;;;8.75;5.57;;;1.90;99.90;;;;;;4939878;29;20209;-67
2023/03/06 04:58:54;;;;;;;8.65;5.30;;;1.90;99.90;;;;;;4939546;29;20204;-67
2023/03/06 05:01:21;;;;;;;10.85;5.28;;;1.90;99.90;;;;;;4947029;28;20205;-67
2023/03/06 05:03:48;;;;;;;8.77;4.60;;;1.90;99.90;;;;;;4937265;29;20236;-66
2023/03/06 05:06:15;;;;;;;7.80;5.05;;;1.90;99.90;;;;;;4947110;29;20205;-67
2023/03/06 05:08:42;;;;;;;5.07;4.15;;;1.90;99.90;;;;;;4944053;29;20208;-67
2023/03/06 05:11:08;;;;;;;7.88;5.45;;;1.80;99.90;;;;;;4945138;29;20626;-68
2023/03/06 05:13:35;;;;;;;9.63;5.30;;;1.80;99.90;;;;;;4941446;29;20220;-66
2023/03/06 05:16:04;;;;;;;11.30;5.22;;;1.80;99.90;;;;;;4952550;28;20436;-67
2023/03/06 05:18:32;;;;;;;7.75;4.43;;;1.70;99.90;;;;;;4953138;28;20211;-67
2023/03/06 05:20:58;;;;;;;8.57;4.82;;;1.70;99.90;;;;;;4952875;28;20280;-66
2023/03/06 05:23:26;;;;;;;5.85;5.22;;;1.60;99.90;;;;;;4945399;28;20221;-66
2023/03/06 05:25:52;;;;;;;10.90;6.10;;;1.60;99.90;;;;;;4940215;29;20469;-66
2023/03/06 05:28:19;;;;;;;6.75;5.25;;;1.60;99.90;;;;;;4933672;29;20210;-66
2023/03/06 05:30:46;;;;;;;9.95;5.93;;;1.60;99.90;;;;;;4935618;29;20743;-66
2023/03/06 05:33:14;;;;;;;8.77;5.30;;;1.60;99.90;;;;;;4951800;28;20228;-65
2023/03/06 05:35:45;;;;;;;7.88;5.35;;;1.60;99.90;;;;;;4952331;29;20201;-66
2023/03/06 05:38:12;;;;;;;5.68;4.55;;;1.60;99.90;;;;;;4944650;29;20293;-65
2023/03/06 05:40:39;;;;;;;6.25;5.00;;;1.60;99.90;;;;;;4952538;29;20259;-65
2023/03/06 05:43:07;;;;;;;6.15;4.75;;;1.60;99.90;;;;;;4951879;28;20228;-65
2023/03/06 05:45:33;;;;;;;6.78;4.50;;;1.60;99.90;;;;;;4952093;29;21016;-66
2023/03/06 05:48:00;;;;;;;5.32;4.20;;;1.60;99.90;;;;;;4940698;28;20204;-66
2023/03/06 05:50:28;;;;;;;8.10;4.95;;;1.60;99.90;;;;;;4948701;29;20664;-66
2023/03/06 05:52:55;;;;;;;8.32;4.50;;;1.60;99.90;;;;;;4943913;28;20695;-66
2023/03/06 05:55:23;;;;;;;7.78;4.47;;;1.50;99.90;;;;;;4952207;29;20212;-66
2023/03/06 05:57:49;;;;;;;7.20;5.72;;;1.50;99.90;;;;;;4949845;28;20208;-66
2023/03/06 06:00:18;;;;;;;5.35;4.35;;;1.50;99.90;;;;;;4939052;29;20897;-66
2023/03/06 06:02:45;;;;;;;5.15;4.20;;;1.50;99.90;;;;;;4952028;28;20247;-66
2023/03/06 06:05:12;;;;;;;5.50;4.05;;;1.50;99.90;;;;;;4946487;29;20591;-66
2023/03/06 06:07:41;;;;;;;8.07;5.18;;;1.50;99.90;;;;;;4941808;29;20201;-65
2023/03/06 06:10:09;;;;;;;6.68;3.65;;;1.50;99.90;;;;;;4944028;28;20659;-66
2023/03/06 06:12:36;;;;;;;12.23;4.50;;;1.60;99.90;;;;;;4951473;28;20205;-66
2023/03/06 06:15:03;;;;;;;8.05;4.38;;;1.60;99.90;;;;;;4943569;29;20204;-66
2023/03/06 06:17:30;;;;;;;6.68;4.75;;;1.60;99.90;;;;;;4951620;28;20718;-66
2023/03/06 06:19:57;;;;;;;11.32;4.93;;;1.60;99.90;;;;;;4951735;28;20208;-66
2023/03/06 06:25:00;;;;;;;5.35;4.35;;;1.60;99.90;;;;;;3213175;23;20230;-72
2023/03/06 06:27:27;;;;;;;9.40;5.30;;;1.60;99.90;;;;;;4968385;28;20543;-71
2023/03/06 06:29:54;;;;;;;10.45;5.85;;;1.60;99.90;;;;;;4973968;28;20208;-72
2023/03/06 06:32:21;;;;;;;8.73;5.43;;;1.70;99.90;;;;;;4974126;28;20204;-72
2023/03/06 06:34:47;;;;;;;8.25;4.55;;;1.70;99.90;;;;;;4954257;28;20224;-72
2023/03/06 06:37:14;;;;;;;7.88;5.03;;;1.70;99.90;;;;;;4955885;28;20215;-72
2023/03/06 06:39:41;;;;;;;9.90;5.45;;;1.70;99.90;;;;;;4955302;28;20698;-72
2023/03/06 06:42:09;;;;;;;6.07;5.20;;;1.70;99.90;;;;;;4967687;28;20215;-72
2023/03/06 06:44:36;;;;;;;11.68;5.10;;;1.70;99.90;;;;;;4973586;28;20655;-72
2023/03/06 06:47:04;;;;;;;7.80;5.35;;;1.70;99.90;;;;;;4974482;28;20278;-71
2023/03/06 06:49:31;;;;;;;8.50;5.13;;;1.70;99.90;;;;;;4967198;28;20197;-72
2023/03/06 06:51:57;;;;;;;7.18;5.10;;;1.70;99.90;;;;;;4954432;28;20208;-72
2023/03/06 06:54:24;;;;;;;7.72;4.97;;;1.80;99.90;;;;;;4954703;28;20720;-72
2023/03/06 06:56:51;;;;;;;7.60;5.03;;;1.80;99.90;;;;;;4966473;28;20597;-72
2023/03/06 06:59:22;;;;;;;7.18;4.80;;;1.90;99.90;;;;;;4967054;28;20208;-73
2023/03/06 07:01:49;;;;;;;8.02;5.72;;;1.90;99.90;;;;;;4976697;28;20204;-72
2023/03/06 07:09:18;;;;;;;8.60;5.10;;;1.90;99.90;;;;;;4953813;28;20223;-71
2023/03/06 07:11:45;;;;;;;10.95;5.45;;;2.00;99.90;;;;;;4954588;29;20208;-71
2023/03/06 07:14:12;;;;;;;8.05;5.00;;;2.00;99.90;;;;;;4954944;28;20228;-72
2023/03/06 07:16:40;;;;;;;9.43;5.15;;;2.00;99.90;;;;;;4954938;29;20231;-72
2023/03/06 07:19:07;;;;;;;8.15;4.75;;;2.10;99.90;;;;;;4955145;29;20204;-72
2023/03/06 07:21:34;;;;;;;5.55;4.28;;;2.10;99.90;;;;;;4954938;29;20205;-72
2023/03/06 07:24:01;;;;;;;8.57;5.32;;;2.20;99.90;;;;;;4953903;28;20236;-72
2023/03/06 07:26:29;;;;;;;8.20;5.30;;;2.30;99.90;;;;;;4954806;29;20222;-71
2023/03/06 07:28:56;;;;;;;8.65;5.30;;;2.30;99.90;;;;;;4943795;29;20235;-71
2023/03/06 07:31:25;;;;;;;9.45;4.50;;;2.30;99.90;;;;;;4935913;29;20201;-71
2023/03/06 07:33:54;;;;;;;9.48;4.68;;;2.30;99.90;;;;;;4944717;29;20234;-72
2023/03/06 07:36:22;;;;;;;6.10;5.00;;;2.30;99.90;;;;;;4955033;29;20200;-72
2023/03/06 07:38:49;;;;;;;6.30;4.43;;;2.30;99.90;;;;;;4954275;29;20211;-71
2023/03/06 07:41:17;;;;;;;6.22;5.00;;;2.30;99.90;;;;;;4954500;29;20215;-70
2023/03/06 07:43:45;;;;;;;7.80;5.75;;;2.40;99.90;;;;;;4953874;28;20232;-71
2023/03/06 07:46:14;;;;;;;9.10;5.30;;;2.50;99.90;;;;;;4954266;28;20223;-72
2023/03/06 07:48:41;;;;;;;8.02;4.55;;;2.50;99.90;;;;;;4953899;29;20207;-71
2023/03/06 07:51:15;;;;;;;8.63;4.57;;;2.50;99.90;;;;;;4954525;29;20208;-71
2023/03/06 07:53:42;;;;;;;8.35;4.35;;;2.50;99.90;;;;;;4953548;28;20236;-71
2023/03/06 07:56:10;;;;;;;7.60;4.03;;;2.50;99.90;;;;;;4953903;29;20552;-71
2023/03/06 07:58:38;;;;;;;6.82;4.57;;;2.60;99.90;;;;;;4953970;29;20300;-70
2023/03/06 08:01:06;;;;;;;7.05;4.55;;;2.70;99.90;;;;;;4954311;28;20204;-71
2023/03/06 08:03:33;;;;;;;6.47;4.70;;;2.90;99.90;;;;;;4953605;28;21097;-71
2023/03/06 08:06:10;;;;;;;12.73;5.20;;;3.00;99.90;;;;;;4953500;28;20228;-71
2023/03/06 08:08:38;;;;;;;7.22;5.50;;;3.10;99.90;;;;;;4953697;29;20615;-71
2023/03/06 08:11:05;;;;;;;8.35;5.57;;;3.10;99.90;;;;;;4953627;29;20201;-71
2023/03/06 08:13:32;;;;;;;7.93;4.53;;;3.30;99.90;;;;;;4953701;28;20216;-70
2023/03/06 08:15:59;;;;;;;7.45;5.13;;;3.40;99.90;;;;;;4950615;29;20208;-71
2023/03/06 08:18:26;;;;;;;6.85;4.90;;;3.50;99.90;;;;;;4934681;29;20652;-70
2023/03/06 08:21:01;;;;;;;5.45;4.40;;;3.60;99.90;;;;;;4934112;29;20210;-71
2023/03/06 08:23:30;;;;;;;5.40;3.88;;;3.70;99.90;;;;;;4934357;29;20224;-71
2023/03/06 08:25:57;;;;;;;7.53;5.47;;;3.70;99.90;;;;;;4933684;28;20312;-71
2023/03/06 08:28:24;;;;;;;6.93;4.03;;;3.70;99.90;;;;;;4934727;29;20624;-71
2023/03/06 08:30:51;;;;;;;5.90;3.70;;;3.80;99.90;;;;;;4934317;29;20209;-71
2023/03/06 08:33:17;;;;;;;5.50;3.67;;;3.90;99.90;;;;;;4939459;29;20227;-70
2023/03/06 08:35:44;;;;;;;5.57;4.22;;;4.00;99.90;;;;;;4952832;29;20212;-71
2023/03/06 08:38:11;;;;;;;8.48;4.43;;;4.10;99.90;;;;;;4953651;29;20237;-70
2023/03/06 08:40:39;;;;;;;4.70;3.80;;;4.20;99.90;;;;;;4953240;29;20201;-70
2023/03/06 08:43:08;;;;;;;4.68;3.95;;;4.30;99.90;;;;;;4952819;28;20220;-70
2023/03/06 08:45:35;;;;;;;6.25;4.57;;;4.50;99.90;;;;;;4953002;29;20231;-71
2023/03/06 08:48:02;;;;;;;5.45;4.10;;;4.50;99.90;;;;;;4953001;29;20212;-70
2023/03/06 08:50:28;;;;;;;6.15;3.80;;;4.70;99.90;;;;;;4953287;29;20204;-71
2023/03/06 08:52:55;;;;;;;5.30;3.90;;;5.00;99.90;;;;;;4952450;28;20602;-70
2023/03/06 08:55:24;;;;;;;5.65;4.00;;;5.30;99.90;;;;;;4928072;29;20201;-71
2023/03/06 08:57:52;;;;;;;5.95;3.72;;;5.30;99.90;;;;;;4933652;29;20205;-71
2023/03/06 09:00:19;;;;;;;5.57;4.05;;;5.20;99.90;;;;;;4934162;29;20232;-71
2023/03/06 09:02:47;;;;;;;4.47;4.07;;;5.20;99.90;;;;;;4941424;29;20424;-71
2023/03/06 09:05:14;;;;;;;6.03;3.80;;;4.90;99.90;;;;;;4933641;29;20660;-71
2023/03/06 09:07:41;;;;;;;7.47;3.88;;;5.00;99.90;;;;;;4933465;29;20213;-71
2023/03/06 09:10:13;;;;;;;5.25;3.42;;;5.10;99.90;;;;;;4948193;29;20212;-71
2023/03/06 09:12:40;;;;;;;5.43;3.97;;;5.10;99.90;;;;;;4952678;28;20205;-70
2023/03/06 09:15:11;;;;;;;7.63;4.50;;;5.20;99.90;;;;;;4941458;29;20201;-72
2023/03/06 09:17:38;;;;;;;7.18;3.80;;;5.30;99.90;;;;;;4940744;28;20205;-72
2023/03/06 09:20:07;;;;;;;6.68;4.22;;;5.30;99.90;;;;;;4941762;28;20205;-72
2023/03/06 09:22:35;;;;;;;8.38;4.25;;;5.20;99.90;;;;;;4934058;29;20205;-72
2023/03/06 09:25:04;;;;;;;7.35;4.97;;;5.20;99.90;;;;;;4932931;29;20420;-71
2023/03/06 09:27:31;;;;;;;6.13;4.03;;;5.10;99.90;;;;;;4939855;29;20205;-72
2023/03/06 09:29:58;;;;;;;6.25;4.28;;;5.10;99.90;;;;;;4934786;28;20216;-70
2023/03/06 09:32:27;;;;;;;8.07;4.93;;;5.10;99.90;;;;;;4938866;28;20205;-72
2023/03/06 09:34:55;;;;;;;9.65;5.63;;;5.10;99.90;;;;;;4935212;29;20224;-70
2023/03/06 09:37:23;;;;;;;6.35;3.97;;;5.10;99.90;;;;;;4933681;29;20197;-72
2023/03/06 09:39:49;;;;;;;4.03;3.42;;;5.10;99.90;;;;;;4932890;29;20581;-72
2023/03/06 09:42:20;;;;;;;4.95;3.78;;;5.00;99.90;;;;;;4933815;29;20208;-71
2023/03/06 09:44:53;;;;;;;3.65;3.15;;;5.10;99.90;;;;;;4931047;29;20402;-71
2023/03/06 09:47:38;;;;;;;4.72;3.30;;;5.10;99.90;;;;;;4933706;29;20201;-72
2023/03/06 09:50:28;;;;;;;5.38;3.53;;;5.20;99.90;;;;;;4933095;29;20237;-70
2023/03/06 09:53:04;;;;;;;6.35;4.20;;;5.40;99.90;;;;;;4932453;29;20268;-72
2023/03/06 09:55:33;;;;;;;5.97;3.67;;;5.50;99.90;;;;;;4950335;29;20196;-70
2023/03/06 09:58:04;;;;;;;4.47;3.65;;;5.40;99.90;;;;;;4944528;29;20211;-71
2023/03/06 10:00:35;;;;;;;4.97;3.67;;;5.30;99.90;;;;;;4945810;29;20201;-71
2023/03/06 10:03:15;;;;;;;4.03;3.28;;;5.20;99.90;;;;;;4949915;29;20228;-71
2023/03/06 10:05:44;;;;;;;7.28;3.90;;;5.10;99.90;;;;;;4944801;29;20231;-70
2023/03/06 10:08:21;;;;;;;3.70;3.17;;;5.00;99.90;;;;;;4951717;29;20213;-71
2023/03/06 10:10:53;;;;;;;6.57;4.35;;;5.10;99.90;;;;;;4933008;29;20204;-71
2023/03/06 10:13:26;;;;;;;3.70;3.30;;;5.00;99.90;;;;;;4933043;29;20225;-71
2023/03/06 10:15:59;;;;;;;5.18;3.35;;;5.00;99.90;;;;;;4932502;29;20212;-71
2023/03/06 10:18:27;;;;;;;5.35;3.85;;;5.00;99.90;;;;;;4933565;29;20198;-71
2023/03/06 10:20:59;;;;;;;4.93;3.10;;;5.00;99.90;;;;;;4933022;29;20209;-70
2023/03/06 10:23:42;;;;;;;5.03;2.85;;;5.20;99.90;;;;;;4932619;29;20231;-70
2023/03/06 10:26:14;;;;;;;4.32;3.35;;;5.40;99.90;;;;;;4951647;29;20224;-71
2023/03/06 10:28:46;;;;;;;4.65;3.65;;;5.40;99.90;;;;;;4937208;29;20216;-72
2023/03/06 10:31:18;;;;;;;3.92;3.28;;;5.40;99.90;;;;;;4936309;29;20212;-71
2023/03/06 10:33:54;;;;;;;5.10;3.45;;;5.40;99.90;;;;;;4936330;29;20247;-71
2023/03/06 10:36:24;;;;;;;5.90;3.80;;;5.30;99.90;;;;;;4937498;29;20204;-71
2023/03/06 10:38:51;;;;;;;5.78;4.13;;;5.20;99.90;;;;;;4936499;29;20217;-71
2023/03/06 10:41:24;;;;;;;5.47;3.47;;;5.20;99.90;;;;;;4936887;29;20623;-71
2023/03/06 10:44:23;;;;;;;4.35;3.95;;;5.10;99.90;;;;;;4935774;29;20225;-71
2023/03/06 10:46:52;;;;;;;5.10;3.60;;;5.00;99.90;;;;;;4935943;29;20244;-70
2023/03/06 10:49:32;;;;;;;3.55;3.22;;;4.80;99.90;;;;;;4936869;29;20213;-70
2023/03/06 10:52:03;;;;;;;6.25;3.40;;;4.60;99.90;;;;;;4936311;29;20225;-71
2023/03/06 10:54:32;;;;;;;6.75;4.18;;;4.60;99.90;;;;;;4941486;29;20220;-71
2023/03/06 10:57:18;;;;;;;5.70;4.20;;;4.60;99.90;;;;;;4955026;29;20575;-71
2023/03/06 10:59:52;;;;;;;6.53;3.50;;;4.70;99.90;;;;;;4955419;28;20201;-71
2023/03/06 11:02:26;;;;;;;5.28;3.70;;;4.80;99.90;;;;;;4953293;28;20286;-71
2023/03/06 11:04:55;;;;;;;5.25;3.95;;;4.70;99.90;;;;;;4951774;29;20211;-71
2023/03/06 11:07:23;;;;;;;5.68;4.28;;;4.70;99.90;;;;;;4955316;29;20584;-71
2023/03/06 11:10:02;;;;;;;4.80;3.45;;;4.60;99.90;;;;;;4954894;29;20220;-71
2023/03/06 11:12:31;;;;;;;7.45;3.53;;;4.60;99.90;;;;;;4945218;29;20209;-72
2023/03/06 11:15:21;;;;;;;5.10;3.13;;;4.50;99.90;;;;;;4934750;29;20233;-73
2023/03/06 11:17:57;;;;;;;3.75;3.15;;;4.60;99.90;;;;;;4951572;29;20216;-71
2023/03/06 11:20:28;;;;;;;4.78;3.85;;;4.50;99.90;;;;;;4936106;29;20204;-71
2023/03/06 11:22:58;;;;;;;4.82;3.70;;;4.60;99.90;;;;;;4934851;29;20784;-70
2023/03/06 11:25:32;;;;;;;5.63;3.72;;;4.70;99.90;;;;;;4939227;29;20205;-71
2023/03/06 11:28:03;;;;;;;5.30;4.30;;;4.90;99.90;;;;;;4954839;29;20602;-70
2023/03/06 11:30:37;;;;;;;4.25;3.40;;;5.00;99.90;;;;;;4954963;29;20208;-71
2023/03/06 11:33:14;;;;;;;5.65;4.10;;;5.10;99.90;;;;;;4954222;28;20619;-72
2023/03/06 11:35:51;;;;;;;5.60;3.95;;;5.20;99.90;;;;;;4954187;29;20207;-71
2023/03/06 11:38:22;;;;;;;5.05;3.63;;;5.30;99.90;;;;;;4955130;29;20200;-72
2023/03/06 11:40:53;;;;;;;3.88;3.10;;;5.40;99.70;;;;;;4939053;29;20209;-72
2023/03/06 11:43:25;;;;;;;5.13;3.58;;;5.50;99.70;;;;;;4935365;29;20228;-71
2023/03/06 11:45:59;;;;;;;4.75;3.95;;;5.60;99.10;;;;;;4934656;29;20224;-70
2023/03/06 11:48:31;;;;;;;6.13;4.57;;;5.70;98.80;;;;;;4935769;29;20205;-72
2023/03/06 11:51:06;;;;;;;4.75;3.78;;;5.90;98.30;;;;;;4934916;29;20229;-71
2023/03/06 11:53:35;;;;;;;4.65;3.35;;;6.10;98.20;;;;;;4935286;29;20220;-72
2023/03/06 11:56:11;;;;;;;4.68;3.70;;;6.40;97.90;;;;;;4934930;29;20208;-71
2023/03/06 11:58:50;;;;;;;6.53;4.05;;;6.50;97.40;;;;;;4934933;29;20231;-71
2023/03/06 12:01:24;;;;;;;6.68;4.40;;;6.60;97.50;;;;;;4935165;29;20212;-71
2023/03/06 12:04:13;;;;;;;5.50;4.60;;;6.70;97.50;;;;;;4934711;29;20233;-71
2023/03/06 12:06:51;;;;;;;4.68;3.83;;;6.80;97.60;;;;;;4934845;29;20334;-69
2023/03/06 12:09:28;;;;;;;5.05;3.42;;;6.80;97.10;;;;;;4935233;29;20205;-71
2023/03/06 12:12:20;;;;;;;6.32;3.72;;;6.90;97.00;;;;;;4934510;29;20208;-70
2023/03/06 12:15:04;;;;;;;6.32;4.32;;;7.10;97.40;;;;;;4934056;29;20626;-71
2023/03/06 12:17:43;;;;;;;5.95;3.70;;;7.50;96.60;;;;;;4935105;29;20745;-71
2023/03/06 12:20:23;;;;;;;6.72;4.57;;;7.60;96.00;;;;;;4934590;29;20208;-70
2023/03/06 12:22:53;;;;;;;5.40;4.30;;;7.80;96.50;;;;;;4934138;29;20229;-70
2023/03/06 12:25:31;;;;;;;5.25;4.15;;;8.10;95.90;;;;;;5001882;23;20223;-67
2023/03/06 12:28:26;;;;;;;4.80;4.30;;;8.30;95.90;;;;;;4992493;28;20444;-68
2023/03/06 12:31:09;;;;;;;4.43;4.03;;;8.30;95.90;;;;;;4977092;28;20211;-68
2023/03/06 12:33:43;;;;;;;5.65;3.55;;;7.90;96.10;;;;;;4976687;28;20231;-68
2023/03/06 12:36:24;;;;;;;7.03;4.20;;;7.80;95.30;;;;;;4970498;28;20211;-67
2023/03/06 12:39:00;;;;;;;7.07;4.43;;;7.60;95.60;;;;;;4954409;28;20204;-67
2023/03/06 12:41:39;;;;;;;4.43;3.65;;;7.40;95.80;;;;;;4957829;28;20231;-69
2023/03/06 12:44:36;;;;;;;5.65;3.70;;;7.20;95.80;;;;;;4964226;28;20235;-67
2023/03/06 12:47:07;;;;;;;6.60;4.43;;;7.00;95.90;;;;;;4971599;28;20227;-67
2023/03/06 12:49:37;;;;;;;5.65;4.00;;;6.70;96.20;;;;;;4966860;28;20218;-67
2023/03/06 12:52:06;;;;;;;5.25;3.80;;;6.30;96.60;;;;;;4972057;28;20259;-67
2023/03/06 12:54:38;;;;;;;5.47;3.53;;;6.20;96.90;;;;;;4971863;28;20220;-67
2023/03/06 12:57:08;;;;;;;7.32;4.38;;;6.10;96.70;;;;;;4964999;28;20204;-67
2023/03/06 12:59:41;;;;;;;4.20;3.65;;;6.10;96.70;;;;;;4964357;28;20216;-67
2023/03/06 13:02:40;;;;;;;5.55;3.90;;;6.10;96.30;;;;;;4954895;28;20212;-67
2023/03/06 13:05:37;;;;;;;6.03;3.70;;;6.30;96.50;;;;;;4952292;28;20204;-67
2023/03/06 13:08:23;;;;;;;4.47;3.88;;;6.50;96.50;;;;;;4950816;28;20228;-67
2023/03/06 13:11:17;;;;;;;5.28;3.95;;;6.60;96.20;;;;;;4952722;28;20211;-67
2023/03/06 13:13:46;;;;;;;5.63;3.58;;;6.40;96.20;;;;;;4966861;28;20707;-67
2023/03/06 13:16:21;;;;;;;5.40;3.20;;;6.40;96.40;;;;;;4962027;28;20296;-68